createdAt,value
2019-04-23T00:01:50.974Z,3.05
2019-04-23T00:04:18.097Z,2.90
2019-04-23T00:06:59.364Z,3.05
2019-04-23T00:11:54.382Z,3.27
2019-04-23T00:14:34.483Z,3.22
2019-04-23T00:16:59.613Z,3.20
2019-04-23T00:19:24.694Z,3.15
2019-04-23T00:21:57.041Z,3.33
2019-04-23T00:30:06.539Z,3.02
2019-04-23T00:32:28.690Z,3.42
2019-04-23T00:34:54.743Z,3.40
2019-04-23T00:37:37.358Z,3.80
2019-04-23T00:39:54.791Z,3.70
2019-04-23T00:42:31.035Z,3.72
2019-04-23T00:47:36.833Z,3.62
2019-04-23T00:50:07.663Z,3.65
2019-04-23T00:52:30.466Z,3.40
2019-04-23T00:55:07.653Z,3.90
2019-04-23T00:57:29.237Z,3.60
2019-04-23T01:00:01.958Z,3.40
2019-04-23T01:02:32.896Z,3.85
2019-04-23T01:05:08.460Z,4.20
2019-04-23T01:07:32.082Z,3.80
2019-04-23T01:10:25.507Z,3.90
2019-04-23T01:12:51.583Z,3.90
2019-04-23T01:15:30.564Z,3.67
2019-04-23T01:20:33.350Z,4.08
2019-04-23T01:22:40.108Z,4.12
2019-04-23T01:25:22.242Z,4.10
2019-04-23T01:28:09.117Z,4.33
2019-04-23T01:30:40.931Z,4.10
2019-04-23T01:33:11.037Z,4.58
2019-04-23T01:35:51.195Z,4.55
2019-04-23T01:38:11.901Z,4.28
2019-04-23T01:40:40.579Z,4.50
2019-04-23T01:43:19.709Z,5.00
2019-04-23T01:45:35.879Z,4.78
2019-04-23T01:48:13.132Z,4.50
2019-04-23T01:50:48.631Z,4.37
2019-04-23T01:53:22.605Z,4.87
2019-04-23T01:55:47.009Z,4.25
2019-04-23T02:00:47.798Z,5.17
2019-04-23T02:03:22.647Z,4.95
2019-04-23T02:05:53.876Z,5.08
2019-04-23T02:08:20.967Z,5.42
2019-04-23T02:13:28.594Z,5.08
2019-04-23T02:15:53.462Z,5.08
2019-04-23T02:18:25.018Z,5.05
2019-04-23T02:20:59.582Z,5.30
2019-04-23T02:23:31.461Z,5.10
2019-04-23T02:26:17.142Z,5.30
2019-04-23T02:28:42.347Z,5.60
2019-04-23T02:33:43.862Z,5.37
2019-04-23T02:41:29.708Z,5.53
2019-04-23T02:43:36.080Z,5.78
2019-04-23T02:46:05.522Z,6.17
2019-04-23T02:48:43.829Z,4.83
2019-04-23T02:51:11.944Z,5.75
2019-04-23T02:53:57.891Z,5.67
2019-04-23T02:56:21.544Z,5.85
2019-04-23T03:06:20.828Z,5.67
2019-04-23T03:08:46.779Z,5.62
2019-04-23T03:13:54.162Z,5.72
2019-04-23T03:22:03.444Z,5.83
2019-04-23T03:24:34.239Z,6.05
2019-04-23T03:29:43.137Z,6.10
2019-04-23T03:39:40.249Z,6.17
2019-04-23T03:44:41.913Z,6.50
2019-04-23T03:49:41.242Z,6.42
2019-04-23T03:52:13.721Z,6.50
2019-04-23T04:12:21.367Z,6.53
2019-04-23T04:17:16.030Z,6.28
2019-04-23T04:25:02.863Z,6.80
2019-04-23T04:27:36.463Z,6.53
2019-04-23T04:29:54.873Z,6.80
2019-04-23T04:32:12.524Z,7.08
2019-04-23T04:35:12.779Z,6.80
2019-04-23T04:37:34.578Z,7.20
2019-04-23T04:40:01.773Z,6.50
2019-04-23T04:44:52.367Z,7.30
2019-04-23T04:49:55.680Z,6.30
2019-04-23T04:52:34.204Z,6.95
2019-04-23T04:54:39.318Z,6.67
2019-04-23T04:57:29.743Z,7.08
2019-04-23T05:02:37.757Z,7.03
2019-04-23T05:05:20.709Z,6.70
2019-04-23T05:13:12.913Z,7.47
2019-04-23T05:17:42.439Z,6.85
2019-04-23T05:20:16.716Z,6.75
2019-04-23T05:22:42.711Z,7.45
2019-04-23T05:24:57.165Z,6.85
2019-04-23T05:27:38.804Z,7.17
2019-04-23T05:30:07.494Z,7.05
2019-04-23T05:32:32.913Z,7.60
2019-04-23T05:35:09.990Z,6.85
2019-04-23T05:37:52.884Z,7.47
2019-04-23T05:40:22.084Z,7.00
2019-04-23T05:42:43.062Z,6.58
2019-04-23T05:45:13.045Z,7.12
2019-04-23T05:47:48.244Z,7.33
2019-04-23T05:50:21.338Z,6.42
2019-04-23T05:52:49.831Z,7.40
2019-04-23T06:00:16.310Z,7.20
2019-04-23T06:02:48.173Z,7.33
2019-04-23T06:05:22.274Z,6.90
2019-04-23T06:07:49.807Z,7.12
2019-04-23T06:10:19.705Z,7.00
2019-04-23T06:12:45.448Z,7.30
2019-04-23T06:15:23.821Z,6.95
2019-04-23T06:17:52.631Z,6.92
2019-04-23T06:22:56.067Z,7.15
2019-04-23T06:25:40.774Z,6.80
2019-04-23T06:27:57.466Z,7.03
2019-04-23T06:30:26.637Z,6.85
2019-04-23T06:32:59.589Z,7.05
2019-04-23T06:35:22.542Z,7.03
2019-04-23T06:40:26.655Z,6.83
2019-04-23T06:42:58.233Z,6.65
2019-04-23T06:45:30.629Z,7.12
2019-04-23T06:48:01.852Z,7.20
2019-04-23T06:50:34.645Z,7.08
2019-04-23T06:53:01.918Z,7.17
2019-04-23T06:55:37.334Z,6.80
2019-04-23T06:58:06.901Z,6.85
2019-04-23T07:00:41.924Z,6.35
2019-04-23T07:05:39.324Z,6.80
2019-04-23T07:08:16.821Z,7.15
2019-04-23T07:10:49.456Z,6.97
2019-04-23T07:13:10.888Z,6.97
2019-04-23T07:15:50.104Z,7.12
2019-04-23T07:18:16.287Z,7.47
2019-04-23T07:20:40.045Z,6.50
2019-04-23T07:23:24.595Z,6.40
2019-04-23T07:25:51.151Z,7.55
2019-04-23T07:28:22.731Z,6.60
2019-04-23T07:30:50.043Z,6.87
2019-04-23T07:33:20.863Z,6.92
2019-04-23T07:35:51.690Z,6.58
2019-04-23T07:38:40.657Z,6.33
2019-04-23T07:41:06.399Z,6.80
2019-04-23T07:43:47.632Z,6.75
2019-04-23T07:46:29.874Z,7.28
2019-04-23T07:48:47.946Z,6.17
2019-04-23T07:51:19.791Z,6.70
2019-04-23T07:53:52.045Z,6.87
2019-04-23T07:56:23.335Z,6.80
2019-04-23T07:58:58.360Z,6.70
2019-04-23T08:01:25.243Z,6.12
2019-04-23T08:03:57.638Z,6.78
2019-04-23T08:06:19.259Z,7.08
2019-04-23T08:08:56.312Z,6.55
2019-04-23T08:11:40.400Z,6.60
2019-04-23T08:16:34.315Z,6.97
2019-04-23T08:19:11.124Z,6.53
2019-04-23T08:21:29.580Z,6.85
2019-04-23T08:24:13.431Z,6.90
2019-04-23T08:26:42.481Z,6.75
2019-04-23T08:29:15.428Z,6.80
2019-04-23T08:31:46.103Z,6.12
2019-04-23T08:39:15.872Z,6.37
2019-04-23T08:41:59.636Z,6.83
2019-04-23T08:44:56.938Z,6.30
2019-04-23T08:47:48.446Z,6.78
2019-04-23T08:49:36.450Z,6.72
2019-04-23T08:54:48.338Z,6.62
2019-04-23T08:59:42.391Z,7.00
2019-04-23T09:04:39.967Z,7.20
2019-04-23T09:07:17.903Z,6.25
2019-04-23T09:09:43.858Z,6.00
2019-04-23T09:12:14.719Z,6.08
2019-04-23T09:14:42.180Z,6.40
2019-04-23T09:17:13.199Z,6.47
2019-04-23T09:19:54.465Z,6.47
2019-04-23T09:22:22.377Z,6.22
2019-04-23T09:24:47.243Z,6.00
2019-04-23T09:27:16.265Z,6.95
2019-04-23T09:30:00.654Z,6.58
2019-04-23T09:37:42.215Z,5.90
2019-04-23T09:40:27.598Z,6.10
2019-04-23T09:43:06.954Z,6.03
2019-04-23T09:45:41.099Z,6.20
2019-04-23T09:48:18.225Z,6.28
2019-04-23T09:50:41.484Z,5.97
2019-04-23T09:53:23.996Z,6.05
2019-04-23T09:55:41.976Z,6.92
2019-04-23T09:58:13.474Z,6.30
2019-04-23T10:00:48.684Z,6.25
2019-04-23T10:03:04.465Z,6.35
2019-04-23T10:05:31.034Z,6.22
2019-04-23T10:08:01.636Z,5.87
2019-04-23T10:10:22.773Z,5.83
2019-04-23T10:12:51.775Z,6.00
2019-04-23T10:15:26.669Z,5.85
2019-04-23T10:17:52.067Z,5.72
2019-04-23T10:20:22.527Z,5.90
2019-04-23T10:22:52.622Z,6.20
2019-04-23T10:25:22.822Z,6.40
2019-04-23T10:27:58.515Z,5.97
2019-04-23T10:30:23.749Z,5.72
2019-04-23T10:32:55.716Z,5.60
2019-04-23T10:35:36.547Z,5.22
2019-04-23T10:38:02.697Z,5.53
2019-04-23T10:40:32.185Z,5.87
2019-04-23T10:42:59.699Z,5.53
2019-04-23T10:45:54.005Z,5.90
2019-04-23T10:48:49.465Z,6.15
2019-04-23T10:59:19.891Z,5.87
2019-04-23T11:01:56.715Z,6.03
2019-04-23T11:04:32.938Z,6.10
2019-04-23T11:07:25.437Z,5.80
2019-04-23T11:09:36.492Z,6.17
2019-04-23T11:12:02.133Z,5.42
2019-04-23T11:14:31.729Z,5.60
2019-04-23T11:19:39.978Z,7.17
2019-04-23T11:22:24.127Z,6.62
2019-04-23T11:27:09.603Z,5.83
2019-04-23T11:29:34.284Z,6.22
2019-04-23T11:32:21.513Z,6.00
2019-04-23T11:34:58.445Z,6.58
2019-04-23T11:37:06.199Z,6.45
2019-04-23T11:39:41.998Z,6.40
2019-04-23T11:42:14.755Z,6.53
2019-04-23T11:47:12.604Z,6.25
2019-04-23T11:50:00.473Z,6.45
2019-04-23T11:54:41.427Z,6.53
2019-04-23T11:59:43.592Z,6.60
2019-04-23T12:02:12.069Z,6.75
2019-04-23T12:05:05.479Z,6.65
2019-04-23T12:07:29.526Z,6.22
2019-04-23T12:10:04.793Z,6.97
2019-04-23T12:12:33.400Z,6.10
2019-04-23T12:15:07.256Z,6.17
2019-04-23T12:25:17.374Z,6.75
2019-04-23T12:27:44.200Z,6.58
2019-04-23T12:30:20.475Z,6.12
2019-04-23T12:32:59.423Z,6.50
2019-04-23T12:38:01.295Z,6.92
2019-04-23T12:40:19.871Z,5.80
2019-04-23T12:48:09.525Z,6.45
2019-04-23T12:50:41.637Z,6.37
2019-04-23T12:52:55.687Z,6.42
2019-04-23T12:55:31.942Z,5.85
2019-04-23T13:00:27.143Z,6.05
2019-04-23T13:02:55.509Z,5.78
2019-04-23T13:05:27.117Z,5.53
2019-04-23T13:08:00.460Z,5.58
2019-04-23T13:10:29.605Z,6.10
2019-04-23T13:13:03.949Z,6.58
2019-04-23T13:15:30.895Z,6.00
2019-04-23T13:20:31.887Z,6.30
2019-04-23T13:25:45.651Z,6.00
2019-04-23T13:28:14.082Z,5.40
2019-04-23T13:38:15.994Z,5.33
2019-04-23T13:40:47.556Z,6.25
2019-04-23T13:43:23.099Z,5.90
2019-04-23T13:45:59.238Z,5.87
2019-04-23T13:48:10.840Z,6.83
2019-04-23T13:55:45.582Z,6.60
2019-04-23T14:01:00.866Z,6.42
2019-04-23T14:03:30.669Z,6.00
2019-04-23T14:06:09.381Z,6.45
2019-04-23T14:08:50.131Z,6.08
2019-04-23T14:11:05.610Z,6.35
2019-04-23T14:18:54.663Z,6.03
2019-04-23T14:21:14.122Z,5.80
2019-04-23T14:23:59.199Z,6.30
2019-04-23T14:36:17.357Z,5.85
2019-04-23T14:38:44.463Z,6.00
2019-04-23T14:43:58.009Z,6.72
2019-04-23T14:48:51.873Z,6.10
2019-04-23T14:51:24.078Z,6.65
2019-04-23T14:58:57.565Z,6.28
2019-04-23T15:01:33.613Z,6.08
2019-04-23T15:06:29.528Z,6.10
2019-04-23T15:08:58.952Z,6.20
2019-04-23T15:13:53.917Z,5.87
2019-04-23T15:16:31.792Z,6.40
2019-04-23T15:21:47.334Z,6.00
2019-04-23T15:28:39.204Z,5.95
2019-04-23T15:34:10.203Z,5.95
2019-04-23T15:36:48.568Z,6.28
2019-04-23T15:39:10.478Z,6.00
2019-04-23T15:44:14.881Z,6.00
2019-04-23T15:46:39.602Z,6.03
2019-04-23T15:49:15.939Z,6.40
2019-04-23T16:03:43.453Z,6.45
2019-04-23T16:06:15.675Z,6.00
2019-04-23T16:11:44.085Z,6.20
2019-04-23T16:14:22.714Z,5.70
2019-04-23T16:16:46.332Z,5.78
2019-04-23T16:29:32.863Z,5.95
2019-04-23T16:31:54.723Z,6.45
2019-04-23T16:37:13.724Z,5.72
2019-04-23T16:39:39.122Z,6.15
2019-04-23T16:42:17.511Z,6.22
2019-04-23T16:44:48.706Z,6.53
2019-04-23T16:47:21.900Z,6.35
2019-04-23T16:49:44.460Z,6.33
2019-04-23T16:52:14.739Z,6.25
2019-04-23T16:54:53.765Z,5.83
2019-04-23T16:57:35.983Z,6.08
2019-04-23T17:00:02.903Z,6.53
2019-04-23T17:02:20.574Z,6.03
2019-04-23T17:04:52.987Z,6.30
2019-04-23T17:07:13.203Z,5.75
2019-04-23T17:10:08.171Z,6.45
2019-04-23T17:12:20.003Z,5.70
2019-04-23T17:14:56.227Z,6.10
2019-04-23T17:17:11.710Z,6.20
2019-04-23T17:19:50.443Z,6.12
2019-04-23T17:22:17.565Z,6.03
2019-04-23T17:25:01.263Z,6.03
2019-04-23T17:27:34.846Z,6.42
2019-04-23T17:30:00.197Z,5.87
2019-04-23T17:32:23.117Z,6.72
2019-04-23T17:35:08.177Z,6.53
2019-04-23T17:42:30.995Z,6.30
2019-04-23T17:45:23.039Z,6.33
2019-04-23T17:47:59.376Z,6.12
2019-04-23T17:52:56.195Z,6.33
2019-04-23T17:55:21.906Z,6.55
2019-04-23T17:58:00.421Z,6.15
2019-04-23T18:05:54.628Z,6.50
2019-04-23T18:07:59.308Z,6.45
2019-04-23T18:12:57.752Z,6.55
2019-04-23T18:15:17.453Z,6.20
2019-04-23T18:18:21.283Z,6.67
2019-04-23T18:20:58.034Z,6.60
2019-04-23T18:23:14.883Z,6.40
2019-04-23T18:25:44.546Z,6.75
2019-04-23T18:28:08.574Z,6.33
2019-04-23T18:30:57.330Z,7.37
2019-04-23T18:33:49.728Z,6.30
2019-04-23T18:35:44.005Z,6.83
2019-04-23T18:38:24.887Z,7.50
2019-04-23T18:56:06.836Z,7.05
2019-04-23T18:58:48.543Z,7.17
2019-04-23T19:09:10.168Z,7.45
2019-04-23T19:14:30.511Z,6.70
2019-04-23T19:19:27.316Z,7.55
2019-04-23T19:24:21.818Z,7.17
2019-04-23T19:31:54.167Z,7.83
2019-04-23T19:42:06.775Z,7.25
2019-04-23T19:44:32.966Z,8.10
2019-04-23T19:49:32.788Z,8.25
2019-04-23T19:51:59.496Z,8.08
2019-04-23T19:57:03.919Z,7.92
2019-04-23T19:59:44.451Z,8.35
2019-04-23T20:02:07.226Z,8.28
2019-04-23T20:12:05.969Z,8.20
2019-04-23T20:19:45.324Z,8.50
2019-04-23T20:22:21.870Z,8.08
2019-04-23T20:37:48.944Z,8.33
2019-04-23T20:40:18.616Z,8.45
2019-04-23T20:42:33.908Z,7.83
2019-04-23T20:45:04.843Z,8.78
2019-04-23T20:47:32.268Z,8.68
2019-04-23T20:50:10.421Z,8.25
2019-04-23T20:52:22.499Z,8.50
2019-04-23T20:55:19.921Z,8.60
2019-04-23T20:57:43.914Z,8.25
2019-04-23T21:00:42.920Z,9.08
2019-04-23T21:05:21.545Z,8.80
2019-04-23T21:07:57.519Z,8.45
2019-04-23T21:10:27.320Z,9.43
2019-04-23T21:28:06.912Z,9.70
2019-04-23T21:31:00.633Z,9.28
2019-04-23T21:33:15.753Z,9.45
2019-04-23T21:36:15.392Z,9.00
2019-04-23T21:39:04.287Z,9.18
2019-04-23T21:41:39.405Z,8.35
2019-04-23T21:44:10.292Z,9.28
2019-04-23T21:51:46.457Z,9.25
2019-04-23T21:53:56.889Z,8.78
2019-04-23T21:59:04.426Z,9.23
2019-04-23T22:01:39.771Z,9.08
2019-04-23T22:07:02.531Z,7.50
2019-04-23T22:14:10.225Z,8.08
2019-04-23T22:19:20.246Z,8.63
2019-04-23T22:24:11.962Z,8.85
2019-04-23T22:26:38.210Z,8.75
2019-04-23T22:31:47.474Z,7.95
2019-04-23T22:34:17.053Z,7.92
2019-04-23T22:39:17.822Z,8.35
2019-04-23T22:46:53.506Z,7.78
2019-04-23T22:49:45.252Z,7.42
2019-04-23T22:52:16.560Z,7.30
2019-04-23T22:54:41.916Z,8.05
2019-04-23T22:57:04.747Z,8.03
2019-04-23T22:59:57.393Z,8.10
2019-04-23T23:02:41.254Z,7.83
2019-04-23T23:04:57.136Z,8.13
2019-04-23T23:07:19.708Z,8.63
2019-04-23T23:09:51.150Z,7.83
2019-04-23T23:12:21.274Z,7.87
2019-04-23T23:14:54.146Z,7.83
2019-04-23T23:17:24.309Z,8.25
2019-04-23T23:20:01.880Z,7.92
2019-04-23T23:22:23.497Z,8.08
2019-04-23T23:24:55.941Z,8.45
2019-04-23T23:27:19.715Z,8.68
2019-04-23T23:29:58.124Z,8.75
2019-04-23T23:32:23.101Z,8.63
2019-04-23T23:35:12.480Z,8.25
2019-04-23T23:37:19.160Z,8.75
2019-04-23T23:39:58.373Z,8.15
2019-04-23T23:42:22.121Z,8.05
2019-04-23T23:45:07.062Z,8.58
2019-04-23T23:47:25.056Z,7.90
2019-04-23T23:50:01.305Z,8.48
2019-04-23T23:52:35.066Z,7.70
2019-04-23T23:55:03.811Z,8.95
2019-04-23T23:57:21.415Z,8.28
